Rockford, North Carolina
Current Conditions -  °F | °C
As of 2:55 AM on Wednesday 26 Nov 2014 (Local Time) from KMWK Reporting Station
Moderate Rain Moderate Rain  
Wind Chill: 44°   Ceiling: 4200
Heat Index: 44°   Visibility: 7mi
Dew Point: 41°   Wind: 3mph
Humidity: 90%   Direction: 30°NNE
Pressure: 29.99"   Gusts: NA
Location:  36.3461°N, 80.7011°W
Report Text: KMWK 260755Z AUTO 03003KT 7SM RA BKN042 BKN049 OVC060 07/05 A2999 RMK AO2 P0009 T00670051
Loading
Personal Weather Stations






























Interactive Weather Map New forecast layout! Learn more

10-Day Weather Forecast

Advertisements
Track Severe Weather on mobile